M/V Grande Caribe — WCX4495 — position and weather

sailwx.info

Track history (hours):
 
Tides and Currents Weather Stations Pressure Air Temp Water Temp Dewpoint Dewpoint Depression Visibility Wind Speed Wind Dir Waves Ship Positions

M/V Grande Caribe

More information available from US FCC via Universal Licensing System and Coast Guard Vessel Documentation Center.

Last reported at 2014-Sep-30 15:25 UTC. Time now 2014-Sep-30 21:54 UTC.
Position N 40°45' W 074°01'.

Length 55 m; draft 2.1 m.

Type: Ship. MMSI: 369023000.

Date/timePositionNaut miles runAvg speedWind from/ knotsBaromVisibWave heightAir tempDewpointWater temp
2014-Sep-30 15:25N 40°45' W 074°01'0 0.0
2014-Sep-30 12:27N 40°45' W 074°01'0 0.0
2014-Sep-30 02:13N 40°45' W 074°01'0 0.0
2014-Sep-30 01:33N 40°45' W 074°01'0 0.0
2014-Sep-30 00:23N 40°45' W 074°01'0 0.0
2014-Sep-29 23:23N 40°45' W 074°01'0 0.0
2014-Sep-29 22:27N 40°45' W 074°01'0 0.0
2014-Sep-29 19:31N 40°45' W 074°01'0 0.0
2014-Sep-29 18:29N 40°45' W 074°01'0 0.0
2014-Sep-29 17:30N 40°45' W 074°01'0 0.0
2014-Sep-29 16:33N 40°45' W 074°01'0 0.0
2014-Sep-29 15:31N 40°45' W 074°01'0 0.0
2014-Sep-29 13:12N 40°45' W 074°01'0 0.0
2014-Sep-29 12:30N 40°45' W 074°01'0 0.0
2014-Sep-29 11:33N 40°45' W 074°01'0 0.0
2014-Sep-29 10:23N 40°45' W 074°01'0 0.0
2014-Sep-29 09:33N 40°45' W 074°01'0 0.0
2014-Sep-29 08:03N 40°45' W 074°01'0 0.0
2014-Sep-29 00:32N 40°45' W 074°01'0 0.0
2014-Sep-28 23:30N 40°45' W 074°01'4 1.3
2014-Sep-28 20:34N 40°41' W 074°03'  
2014-Sep-23 19:17N 43°58' W 076°30'710.1
2014-Sep-23 18:33N 44°04' W 076°25'9 9.3
2014-Sep-23 17:33N 44°12' W 076°17'102 2.1
2014-Sep-21 17:33N 45°10' W 074°20'9 8.9
2014-Sep-21 16:33N 45°14' W 074°08'8 8.1
2014-Sep-21 15:33N 45°16' W 073°57'3 3.4
2014-Sep-21 14:33N 45°19' W 073°55'8 7.6
2014-Sep-21 13:33N 45°24' W 073°47'8 8.0
2014-Sep-21 12:33N 45°24' W 073°36'4 4.5
2014-Sep-21 11:33N 45°27' W 073°30'5 4.4
2014-Sep-21 10:31N 45°31' W 073°31'4 3.9
2014-Sep-21 09:33N 45°35' W 073°30'3 3.3
2014-Sep-21 08:33N 45°38' W 073°29'8 7.8
2014-Sep-21 07:33N 45°45' W 073°24'8 8.2
2014-Sep-21 06:33N 45°51' W 073°16'8 7.9
2014-Sep-21 05:33N 45°58' W 073°12'27 8.0
2014-Sep-21 02:09N 46°16' W 072°42'5 8.4
2014-Sep-21 01:33N 46°18' W 072°35'8 8.4
2014-Sep-21 00:33N 46°23' W 072°26'8 8.3
2014-Sep-20 23:33N 46°27' W 072°15'  
Track history (hours):
 
Tides and Currents Weather Stations Pressure Air Temp Water Temp Dewpoint Dewpoint Depression Visibility Wind Speed Wind Dir Waves Ship Positions

M/V Grande Caribe

More information available from US FCC via Universal Licensing System and Coast Guard Vessel Documentation Center.

Last reported at 2014-Sep-30 15:25 UTC. Time now 2014-Sep-30 21:54 UTC.
Position N 40°45' W 074°01'.

Length 55 m; draft 2.1 m.

Type: Ship. MMSI: 369023000.

Date/timePositionNaut miles runAvg speedWind from/ knotsBaromVisibWave heightAir tempDewpointWater temp
2014-Sep-30 15:25N 40°45' W 074°01'0 0.0
2014-Sep-30 12:27N 40°45' W 074°01'0 0.0
2014-Sep-30 02:13N 40°45' W 074°01'0 0.0
2014-Sep-30 01:33N 40°45' W 074°01'0 0.0
2014-Sep-30 00:23N 40°45' W 074°01'0 0.0
2014-Sep-29 23:23N 40°45' W 074°01'0 0.0
2014-Sep-29 22:27N 40°45' W 074°01'0 0.0
2014-Sep-29 19:31N 40°45' W 074°01'0 0.0
2014-Sep-29 18:29N 40°45' W 074°01'0 0.0
2014-Sep-29 17:30N 40°45' W 074°01'0 0.0
2014-Sep-29 16:33N 40°45' W 074°01'0 0.0
2014-Sep-29 15:31N 40°45' W 074°01'0 0.0
2014-Sep-29 13:12N 40°45' W 074°01'0 0.0
2014-Sep-29 12:30N 40°45' W 074°01'0 0.0
2014-Sep-29 11:33N 40°45' W 074°01'0 0.0
2014-Sep-29 10:23N 40°45' W 074°01'0 0.0
2014-Sep-29 09:33N 40°45' W 074°01'0 0.0
2014-Sep-29 08:03N 40°45' W 074°01'0 0.0
2014-Sep-29 00:32N 40°45' W 074°01'0 0.0
2014-Sep-28 23:30N 40°45' W 074°01'4 1.3
2014-Sep-28 20:34N 40°41' W 074°03'  
2014-Sep-23 19:17N 43°58' W 076°30'710.1
2014-Sep-23 18:33N 44°04' W 076°25'9 9.3
2014-Sep-23 17:33N 44°12' W 076°17'102 2.1
2014-Sep-21 17:33N 45°10' W 074°20'9 8.9
2014-Sep-21 16:33N 45°14' W 074°08'8 8.1
2014-Sep-21 15:33N 45°16' W 073°57'3 3.4
2014-Sep-21 14:33N 45°19' W 073°55'8 7.6
2014-Sep-21 13:33N 45°24' W 073°47'8 8.0
2014-Sep-21 12:33N 45°24' W 073°36'4 4.5
2014-Sep-21 11:33N 45°27' W 073°30'5 4.4
2014-Sep-21 10:31N 45°31' W 073°31'4 3.9
2014-Sep-21 09:33N 45°35' W 073°30'3 3.3
2014-Sep-21 08:33N 45°38' W 073°29'8 7.8
2014-Sep-21 07:33N 45°45' W 073°24'8 8.2
2014-Sep-21 06:33N 45°51' W 073°16'8 7.9
2014-Sep-21 05:33N 45°58' W 073°12'27 8.0
2014-Sep-21 02:09N 46°16' W 072°42'5 8.4
2014-Sep-21 01:33N 46°18' W 072°35'8 8.4
2014-Sep-21 00:33N 46°23' W 072°26'8 8.3
2014-Sep-20 23:33N 46°27' W 072°15'  

Dump ship's entire track history